sensor_id;sensor_type;location;lat;lon;timestamp;temperature;humidity
61392;DHT22;47261;52.892;5.738;2024-01-11T00:01:47;-3.50;99.90
61392;DHT22;47261;52.892;5.738;2024-01-11T00:04:13;-3.50;99.90
61392;DHT22;47261;52.892;5.738;2024-01-11T00:06:42;-3.60;99.90
61392;DHT22;47261;52.892;5.738;2024-01-11T00:09:08;-3.60;99.90
61392;DHT22;47261;52.892;5.738;2024-01-11T00:11:34;-3.60;99.90
61392;DHT22;47261;52.892;5.738;2024-01-11T00:13:59;-3.60;99.90
61392;DHT22;47261;52.892;5.738;2024-01-11T00:16:25;-3.60;99.90
61392;DHT22;47261;52.892;5.738;2024-01-11T00:18:51;-3.60;99.90
61392;DHT22;47261;52.892;5.738;2024-01-11T00:21:17;-3.60;99.90
61392;DHT22;47261;52.892;5.738;2024-01-11T00:23:43;-3.60;99.90
61392;DHT22;47261;52.892;5.738;2024-01-11T00:26:08;-3.60;99.90
61392;DHT22;47261;52.892;5.738;2024-01-11T00:28:34;-3.60;99.90
61392;DHT22;47261;52.892;5.738;2024-01-11T00:30:59;-3.60;99.90
61392;DHT22;47261;52.892;5.738;2024-01-11T00:33:25;-3.60;99.90
61392;DHT22;47261;52.892;5.738;2024-01-11T00:35:51;-3.60;99.90
61392;DHT22;47261;52.892;5.738;2024-01-11T00:38:16;-3.60;99.90
61392;DHT22;47261;52.892;5.738;2024-01-11T00:40:42;-3.60;99.90
61392;DHT22;47261;52.892;5.738;2024-01-11T00:43:08;-3.60;99.90
61392;DHT22;47261;52.892;5.738;2024-01-11T00:45:34;-3.60;99.90
61392;DHT22;47261;52.892;5.738;2024-01-11T00:48:00;-3.60;99.90
61392;DHT22;47261;52.892;5.738;2024-01-11T00:50:26;-3.60;99.90
61392;DHT22;47261;52.892;5.738;2024-01-11T00:52:51;-3.60;99.90
61392;DHT22;47261;52.892;5.738;2024-01-11T00:55:17;-3.60;99.90
61392;DHT22;47261;52.892;5.738;2024-01-11T00:57:42;-3.60;99.90
61392;DHT22;47261;52.892;5.738;2024-01-11T01:00:10;-3.60;99.90
61392;DHT22;47261;52.892;5.738;2024-01-11T01:02:39;-3.70;99.90
61392;DHT22;47261;52.892;5.738;2024-01-11T01:05:05;-3.60;99.90
61392;DHT22;47261;52.892;5.738;2024-01-11T01:07:31;-3.70;99.90
61392;DHT22;47261;52.892;5.738;2024-01-11T01:09:57;-3.70;99.90
61392;DHT22;47261;52.892;5.738;2024-01-11T01:12:23;-3.70;99.90
61392;DHT22;47261;52.892;5.738;2024-01-11T01:14:50;-3.70;99.90
61392;DHT22;47261;52.892;5.738;2024-01-11T01:17:16;-3.70;99.90
61392;DHT22;47261;52.892;5.738;2024-01-11T01:19:42;-3.70;99.90
61392;DHT22;47261;52.892;5.738;2024-01-11T01:22:07;-3.70;99.90
61392;DHT22;47261;52.892;5.738;2024-01-11T01:24:33;-3.80;99.90
61392;DHT22;47261;52.892;5.738;2024-01-11T01:26:59;-3.70;99.90
61392;DHT22;47261;52.892;5.738;2024-01-11T01:29:24;-3.80;99.90
61392;DHT22;47261;52.892;5.738;2024-01-11T01:31:51;-3.80;99.90
61392;DHT22;47261;52.892;5.738;2024-01-11T01:34:16;-3.80;99.90
61392;DHT22;47261;52.892;5.738;2024-01-11T01:36:42;-3.70;99.90
61392;DHT22;47261;52.892;5.738;2024-01-11T01:39:08;-3.70;99.90
61392;DHT22;47261;52.892;5.738;2024-01-11T01:41:33;-3.80;99.90
61392;DHT22;47261;52.892;5.738;2024-01-11T01:43:59;-3.80;99.90
61392;DHT22;47261;52.892;5.738;2024-01-11T01:46:25;-3.80;99.90
61392;DHT22;47261;52.892;5.738;2024-01-11T01:48:54;-3.80;99.90
61392;DHT22;47261;52.892;5.738;2024-01-11T01:51:21;-3.80;99.90
61392;DHT22;47261;52.892;5.738;2024-01-11T01:53:48;-3.80;99.90
61392;DHT22;47261;52.892;5.738;2024-01-11T01:56:14;-3.80;99.90
61392;DHT22;47261;52.892;5.738;2024-01-11T01:58:40;-3.80;99.90
61392;DHT22;47261;52.892;5.738;2024-01-11T02:01:08;-3.80;99.90
61392;DHT22;47261;52.892;5.738;2024-01-11T02:03:35;-3.70;99.90
61392;DHT22;47261;52.892;5.738;2024-01-11T02:06:03;-3.80;99.90
61392;DHT22;47261;52.892;5.738;2024-01-11T02:08:30;-3.80;99.90
61392;DHT22;47261;52.892;5.738;2024-01-11T02:10:58;-3.80;99.90
61392;DHT22;47261;52.892;5.738;2024-01-11T02:13:24;-3.80;99.90
61392;DHT22;47261;52.892;5.738;2024-01-11T02:15:50;-3.80;99.90
61392;DHT22;47261;52.892;5.738;2024-01-11T02:18:16;-3.80;99.90
61392;DHT22;47261;52.892;5.738;2024-01-11T02:20:42;-3.70;99.90
61392;DHT22;47261;52.892;5.738;2024-01-11T02:23:14;-3.80;99.90
61392;DHT22;47261;52.892;5.738;2024-01-11T02:25:42;-3.80;99.90
61392;DHT22;47261;52.892;5.738;2024-01-11T02:28:08;-3.70;99.90
61392;DHT22;47261;52.892;5.738;2024-01-11T02:30:34;-3.80;99.90
61392;DHT22;47261;52.892;5.738;2024-01-11T02:32:59;-3.80;99.90
61392;DHT22;47261;52.892;5.738;2024-01-11T02:35:27;-3.80;99.90
61392;DHT22;47261;52.892;5.738;2024-01-11T02:37:53;-3.80;99.90
61392;DHT22;47261;52.892;5.738;2024-01-11T02:40:19;-3.80;99.90
61392;DHT22;47261;52.892;5.738;2024-01-11T02:42:45;-3.80;99.90
61392;DHT22;47261;52.892;5.738;2024-01-11T02:45:12;-3.80;99.90
61392;DHT22;47261;52.892;5.738;2024-01-11T02:47:40;-3.90;99.90
61392;DHT22;47261;52.892;5.738;2024-01-11T02:50:06;-3.90;99.90
61392;DHT22;47261;52.892;5.738;2024-01-11T02:52:33;-3.90;99.90
61392;DHT22;47261;52.892;5.738;2024-01-11T02:54:59;-3.90;99.90
61392;DHT22;47261;52.892;5.738;2024-01-11T02:57:24;-3.90;99.90
61392;DHT22;47261;52.892;5.738;2024-01-11T02:59:51;-4.00;99.90
61392;DHT22;47261;52.892;5.738;2024-01-11T03:02:17;-4.00;99.90
61392;DHT22;47261;52.892;5.738;2024-01-11T03:04:42;-4.10;99.90
61392;DHT22;47261;52.892;5.738;2024-01-11T03:07:08;-4.10;99.90
61392;DHT22;47261;52.892;5.738;2024-01-11T03:09:34;-4.10;99.90
61392;DHT22;47261;52.892;5.738;2024-01-11T03:12:00;-4.20;99.90
61392;DHT22;47261;52.892;5.738;2024-01-11T03:14:25;-4.20;99.90
61392;DHT22;47261;52.892;5.738;2024-01-11T03:16:51;-4.30;99.90
61392;DHT22;47261;52.892;5.738;2024-01-11T03:19:17;-4.40;99.90
61392;DHT22;47261;52.892;5.738;2024-01-11T03:21:43;-4.40;99.90
61392;DHT22;47261;52.892;5.738;2024-01-11T03:24:09;-4.40;99.90
61392;DHT22;47261;52.892;5.738;2024-01-11T03:26:34;-4.40;99.90
61392;DHT22;47261;52.892;5.738;2024-01-11T03:29:00;-4.40;99.90
61392;DHT22;47261;52.892;5.738;2024-01-11T03:31:26;-4.40;99.90
61392;DHT22;47261;52.892;5.738;2024-01-11T03:33:51;-4.30;99.90
61392;DHT22;47261;52.892;5.738;2024-01-11T03:36:17;-4.30;99.90
61392;DHT22;47261;52.892;5.738;2024-01-11T03:38:42;-4.20;99.90
61392;DHT22;47261;52.892;5.738;2024-01-11T03:41:09;-4.20;99.90
61392;DHT22;47261;52.892;5.738;2024-01-11T03:43:37;-4.10;99.90
61392;DHT22;47261;52.892;5.738;2024-01-11T03:46:03;-4.10;99.90
61392;DHT22;47261;52.892;5.738;2024-01-11T03:48:30;-4.10;99.90
61392;DHT22;47261;52.892;5.738;2024-01-11T03:50:55;-4.10;99.90
61392;DHT22;47261;52.892;5.738;2024-01-11T03:53:21;-4.10;99.90
61392;DHT22;47261;52.892;5.738;2024-01-11T03:55:47;-4.10;99.90
61392;DHT22;47261;52.892;5.738;2024-01-11T03:58:12;-4.00;99.90
61392;DHT22;47261;52.892;5.738;2024-01-11T04:00:38;-4.00;99.90
61392;DHT22;47261;52.892;5.738;2024-01-11T04:03:04;-4.00;99.90
61392;DHT22;47261;52.892;5.738;2024-01-11T04:05:31;-4.10;99.90
61392;DHT22;47261;52.892;5.738;2024-01-11T04:07:56;-4.10;99.90
61392;DHT22;47261;52.892;5.738;2024-01-11T04:10:22;-4.10;99.90
61392;DHT22;47261;52.892;5.738;2024-01-11T04:12:48;-4.10;99.90
61392;DHT22;47261;52.892;5.738;2024-01-11T04:15:13;-4.10;99.90
61392;DHT22;47261;52.892;5.738;2024-01-11T04:17:39;-4.10;99.90
61392;DHT22;47261;52.892;5.738;2024-01-11T04:20:06;-4.10;99.90
61392;DHT22;47261;52.892;5.738;2024-01-11T04:22:32;-4.10;99.90
61392;DHT22;47261;52.892;5.738;2024-01-11T04:24:58;-4.10;99.90
61392;DHT22;47261;52.892;5.738;2024-01-11T04:27:23;-4.10;99.90
61392;DHT22;47261;52.892;5.738;2024-01-11T04:29:49;-4.10;99.90
61392;DHT22;47261;52.892;5.738;2024-01-11T04:32:15;-4.10;99.90
61392;DHT22;47261;52.892;5.738;2024-01-11T04:34:40;-4.10;99.90
61392;DHT22;47261;52.892;5.738;2024-01-11T04:37:06;-4.10;99.90
61392;DHT22;47261;52.892;5.738;2024-01-11T04:39:32;-4.00;99.90
61392;DHT22;47261;52.892;5.738;2024-01-11T04:41:57;-4.00;99.90
61392;DHT22;47261;52.892;5.738;2024-01-11T04:44:23;-4.00;99.90
61392;DHT22;47261;52.892;5.738;2024-01-11T04:46:49;-4.10;99.90
61392;DHT22;47261;52.892;5.738;2024-01-11T04:49:14;-4.10;99.90
61392;DHT22;47261;52.892;5.738;2024-01-11T04:51:40;-4.00;99.90
61392;DHT22;47261;52.892;5.738;2024-01-11T04:54:06;-4.00;99.90
61392;DHT22;47261;52.892;5.738;2024-01-11T04:56:31;-4.00;99.90
61392;DHT22;47261;52.892;5.738;2024-01-11T04:58:57;-4.00;99.90
61392;DHT22;47261;52.892;5.738;2024-01-11T05:01:24;-4.00;99.90
61392;DHT22;47261;52.892;5.738;2024-01-11T05:03:49;-4.00;99.90
61392;DHT22;47261;52.892;5.738;2024-01-11T05:06:16;-4.00;99.90
61392;DHT22;47261;52.892;5.738;2024-01-11T05:08:42;-4.00;99.90
61392;DHT22;47261;52.892;5.738;2024-01-11T05:11:08;-4.00;99.90
61392;DHT22;47261;52.892;5.738;2024-01-11T05:13:39;-4.00;99.90
61392;DHT22;47261;52.892;5.738;2024-01-11T05:16:05;-4.00;99.90
61392;DHT22;47261;52.892;5.738;2024-01-11T05:18:31;-4.00;99.90
61392;DHT22;47261;52.892;5.738;2024-01-11T05:20:56;-4.00;99.90
61392;DHT22;47261;52.892;5.738;2024-01-11T05:23:22;-4.00;99.90
61392;DHT22;47261;52.892;5.738;2024-01-11T05:25:47;-4.00;99.90
61392;DHT22;47261;52.892;5.738;2024-01-11T05:28:13;-4.00;99.90
61392;DHT22;47261;52.892;5.738;2024-01-11T05:30:38;-4.00;99.90
61392;DHT22;47261;52.892;5.738;2024-01-11T05:33:04;-4.00;99.90
61392;DHT22;47261;52.892;5.738;2024-01-11T05:35:30;-4.00;99.90
61392;DHT22;47261;52.892;5.738;2024-01-11T05:37:56;-4.00;99.90
61392;DHT22;47261;52.892;5.738;2024-01-11T05:40:21;-4.00;99.90
61392;DHT22;47261;52.892;5.738;2024-01-11T05:42:47;-4.00;99.90
61392;DHT22;47261;52.892;5.738;2024-01-11T05:45:13;-3.90;99.90
61392;DHT22;47261;52.892;5.738;2024-01-11T05:47:42;-3.90;99.90
61392;DHT22;47261;52.892;5.738;2024-01-11T05:50:08;-3.80;99.90
61392;DHT22;47261;52.892;5.738;2024-01-11T05:52:34;-3.70;99.90
61392;DHT22;47261;52.892;5.738;2024-01-11T05:54:59;-3.60;99.90
61392;DHT22;47261;52.892;5.738;2024-01-11T05:57:25;-3.50;99.90
61392;DHT22;47261;52.892;5.738;2024-01-11T05:59:51;-3.40;99.90
61392;DHT22;47261;52.892;5.738;2024-01-11T06:02:16;-3.30;99.90
61392;DHT22;47261;52.892;5.738;2024-01-11T06:04:42;-3.20;99.90
61392;DHT22;47261;52.892;5.738;2024-01-11T06:07:07;-3.10;99.90
61392;DHT22;47261;52.892;5.738;2024-01-11T06:09:33;-3.00;99.90
61392;DHT22;47261;52.892;5.738;2024-01-11T06:11:59;-2.90;99.90
61392;DHT22;47261;52.892;5.738;2024-01-11T06:14:25;-2.80;99.90
61392;DHT22;47261;52.892;5.738;2024-01-11T06:16:50;-2.80;99.90
61392;DHT22;47261;52.892;5.738;2024-01-11T06:19:16;-2.70;99.90
61392;DHT22;47261;52.892;5.738;2024-01-11T06:21:41;-2.70;99.90
61392;DHT22;47261;52.892;5.738;2024-01-11T06:24:07;-2.60;99.90
61392;DHT22;47261;52.892;5.738;2024-01-11T06:26:33;-2.60;99.90
61392;DHT22;47261;52.892;5.738;2024-01-11T06:28:58;-2.50;99.90
61392;DHT22;47261;52.892;5.738;2024-01-11T06:31:24;-2.40;99.90
61392;DHT22;47261;52.892;5.738;2024-01-11T06:33:49;-2.40;99.90
61392;DHT22;47261;52.892;5.738;2024-01-11T06:36:15;-2.30;99.90
61392;DHT22;47261;52.892;5.738;2024-01-11T06:38:41;-2.20;99.90
61392;DHT22;47261;52.892;5.738;2024-01-11T06:41:06;-2.10;99.90
61392;DHT22;47261;52.892;5.738;2024-01-11T06:43:32;-2.10;99.90
61392;DHT22;47261;52.892;5.738;2024-01-11T06:46:03;-2.00;99.90
61392;DHT22;47261;52.892;5.738;2024-01-11T06:48:28;-2.00;99.90
61392;DHT22;47261;52.892;5.738;2024-01-11T06:50:54;-1.90;99.90
61392;DHT22;47261;52.892;5.738;2024-01-11T06:53:20;-1.90;99.90
61392;DHT22;47261;52.892;5.738;2024-01-11T06:55:45;-1.80;99.90
61392;DHT22;47261;52.892;5.738;2024-01-11T06:58:13;-1.80;99.90
61392;DHT22;47261;52.892;5.738;2024-01-11T07:00:38;-1.70;99.90
61392;DHT22;47261;52.892;5.738;2024-01-11T07:03:09;-1.70;99.90
61392;DHT22;47261;52.892;5.738;2024-01-11T07:05:36;-1.60;99.90
61392;DHT22;47261;52.892;5.738;2024-01-11T07:08:02;-1.60;99.90
61392;DHT22;47261;52.892;5.738;2024-01-11T07:10:27;-1.60;99.90
61392;DHT22;47261;52.892;5.738;2024-01-11T07:12:53;-1.50;99.90
61392;DHT22;47261;52.892;5.738;2024-01-11T07:15:19;-1.50;99.90
61392;DHT22;47261;52.892;5.738;2024-01-11T07:17:44;-1.50;99.90
61392;DHT22;47261;52.892;5.738;2024-01-11T07:20:10;-1.50;99.90
61392;DHT22;47261;52.892;5.738;2024-01-11T07:22:36;-1.40;99.90
61392;DHT22;47261;52.892;5.738;2024-01-11T07:25:02;-1.40;99.90
61392;DHT22;47261;52.892;5.738;2024-01-11T07:27:29;-1.40;99.90
61392;DHT22;47261;52.892;5.738;2024-01-11T07:29:55;-1.30;99.90
61392;DHT22;47261;52.892;5.738;2024-01-11T07:32:20;-1.30;99.90
61392;DHT22;47261;52.892;5.738;2024-01-11T07:34:46;-1.30;99.90
61392;DHT22;47261;52.892;5.738;2024-01-11T07:37:11;-1.30;99.90
61392;DHT22;47261;52.892;5.738;2024-01-11T07:39:37;-1.20;99.90
61392;DHT22;47261;52.892;5.738;2024-01-11T07:42:03;-1.20;99.90
61392;DHT22;47261;52.892;5.738;2024-01-11T07:44:28;-1.20;99.90
61392;DHT22;47261;52.892;5.738;2024-01-11T07:46:54;-1.20;99.90
61392;DHT22;47261;52.892;5.738;2024-01-11T07:49:20;-1.10;99.90
61392;DHT22;47261;52.892;5.738;2024-01-11T07:51:46;-1.10;99.90
61392;DHT22;47261;52.892;5.738;2024-01-11T07:54:11;-1.10;99.90
61392;DHT22;47261;52.892;5.738;2024-01-11T07:56:37;-1.00;99.90
61392;DHT22;47261;52.892;5.738;2024-01-11T07:59:03;-1.00;99.90
61392;DHT22;47261;52.892;5.738;2024-01-11T08:01:29;-0.90;99.90
61392;DHT22;47261;52.892;5.738;2024-01-11T08:03:55;-0.90;99.90
61392;DHT22;47261;52.892;5.738;2024-01-11T08:06:21;-0.90;99.90
61392;DHT22;47261;52.892;5.738;2024-01-11T08:08:49;-0.80;99.90
61392;DHT22;47261;52.892;5.738;2024-01-11T08:11:17;-0.80;99.90
61392;DHT22;47261;52.892;5.738;2024-01-11T08:13:44;-0.70;99.90
61392;DHT22;47261;52.892;5.738;2024-01-11T08:16:15;-0.70;99.90
61392;DHT22;47261;52.892;5.738;2024-01-11T08:18:41;-0.70;99.90
61392;DHT22;47261;52.892;5.738;2024-01-11T08:21:07;-0.60;99.90
61392;DHT22;47261;52.892;5.738;2024-01-11T08:23:34;-0.60;99.90
61392;DHT22;47261;52.892;5.738;2024-01-11T08:26:00;-0.60;99.90
61392;DHT22;47261;52.892;5.738;2024-01-11T08:28:26;-0.50;99.90
61392;DHT22;47261;52.892;5.738;2024-01-11T08:30:51;-0.50;99.90
61392;DHT22;47261;52.892;5.738;2024-01-11T08:33:17;-0.40;99.90
61392;DHT22;47261;52.892;5.738;2024-01-11T08:35:43;-0.40;99.90
61392;DHT22;47261;52.892;5.738;2024-01-11T08:38:08;-0.30;99.90
61392;DHT22;47261;52.892;5.738;2024-01-11T08:40:34;-0.30;99.90
61392;DHT22;47261;52.892;5.738;2024-01-11T08:43:00;-0.20;99.90
61392;DHT22;47261;52.892;5.738;2024-01-11T08:45:26;-0.20;99.90
61392;DHT22;47261;52.892;5.738;2024-01-11T08:47:52;-0.10;99.90
61392;DHT22;47261;52.892;5.738;2024-01-11T08:50:17;-0.10;99.90
61392;DHT22;47261;52.892;5.738;2024-01-11T08:52:43;0.00;99.90
61392;DHT22;47261;52.892;5.738;2024-01-11T08:55:09;0.10;99.90
61392;DHT22;47261;52.892;5.738;2024-01-11T08:57:35;0.10;99.90
61392;DHT22;47261;52.892;5.738;2024-01-11T09:00:04;0.20;99.90
61392;DHT22;47261;52.892;5.738;2024-01-11T09:02:31;0.30;99.90
61392;DHT22;47261;52.892;5.738;2024-01-11T09:04:57;0.30;99.90
61392;DHT22;47261;52.892;5.738;2024-01-11T09:07:23;0.40;99.90
61392;DHT22;47261;52.892;5.738;2024-01-11T09:09:48;0.40;99.90
61392;DHT22;47261;52.892;5.738;2024-01-11T09:12:14;0.40;99.90
61392;DHT22;47261;52.892;5.738;2024-01-11T09:14:39;0.50;99.90
61392;DHT22;47261;52.892;5.738;2024-01-11T09:17:05;0.50;99.90
61392;DHT22;47261;52.892;5.738;2024-01-11T09:19:34;0.60;99.90
61392;DHT22;47261;52.892;5.738;2024-01-11T09:22:00;0.70;99.90
61392;DHT22;47261;52.892;5.738;2024-01-11T09:24:26;0.70;99.90
61392;DHT22;47261;52.892;5.738;2024-01-11T09:26:51;0.80;99.90
61392;DHT22;47261;52.892;5.738;2024-01-11T09:29:17;0.80;99.90
61392;DHT22;47261;52.892;5.738;2024-01-11T09:31:43;0.90;99.90
61392;DHT22;47261;52.892;5.738;2024-01-11T09:34:09;0.90;99.90
61392;DHT22;47261;52.892;5.738;2024-01-11T09:36:34;0.90;99.90
61392;DHT22;47261;52.892;5.738;2024-01-11T09:39:00;1.00;99.90
61392;DHT22;47261;52.892;5.738;2024-01-11T09:41:26;1.10;99.90
61392;DHT22;47261;52.892;5.738;2024-01-11T09:43:54;1.10;99.90
61392;DHT22;47261;52.892;5.738;2024-01-11T09:46:23;1.20;99.90
61392;DHT22;47261;52.892;5.738;2024-01-11T09:48:50;1.30;99.90
61392;DHT22;47261;52.892;5.738;2024-01-11T09:51:17;1.40;99.90
61392;DHT22;47261;52.892;5.738;2024-01-11T09:53:43;1.40;99.90
61392;DHT22;47261;52.892;5.738;2024-01-11T09:56:10;1.50;99.90
61392;DHT22;47261;52.892;5.738;2024-01-11T09:58:36;1.50;99.90
61392;DHT22;47261;52.892;5.738;2024-01-11T10:01:02;1.60;99.90
61392;DHT22;47261;52.892;5.738;2024-01-11T10:03:28;1.70;99.90
61392;DHT22;47261;52.892;5.738;2024-01-11T10:05:57;1.80;99.90
61392;DHT22;47261;52.892;5.738;2024-01-11T10:08:23;1.90;99.90
61392;DHT22;47261;52.892;5.738;2024-01-11T10:10:49;1.90;99.90
61392;DHT22;47261;52.892;5.738;2024-01-11T10:13:18;2.00;99.90
61392;DHT22;47261;52.892;5.738;2024-01-11T10:15:43;2.00;99.90
61392;DHT22;47261;52.892;5.738;2024-01-11T10:18:09;2.10;99.90
61392;DHT22;47261;52.892;5.738;2024-01-11T10:20:36;2.20;99.90
61392;DHT22;47261;52.892;5.738;2024-01-11T10:23:02;2.20;99.90
61392;DHT22;47261;52.892;5.738;2024-01-11T10:25:28;2.30;99.90
61392;DHT22;47261;52.892;5.738;2024-01-11T10:27:54;2.30;99.90
61392;DHT22;47261;52.892;5.738;2024-01-11T10:30:20;2.40;99.90
61392;DHT22;47261;52.892;5.738;2024-01-11T10:32:48;2.40;99.90
61392;DHT22;47261;52.892;5.738;2024-01-11T10:35:14;2.50;99.90
61392;DHT22;47261;52.892;5.738;2024-01-11T10:37:41;2.60;99.90
61392;DHT22;47261;52.892;5.738;2024-01-11T10:40:08;2.70;99.90
61392;DHT22;47261;52.892;5.738;2024-01-11T10:42:49;2.80;99.90
61392;DHT22;47261;52.892;5.738;2024-01-11T10:45:18;2.80;99.90
61392;DHT22;47261;52.892;5.738;2024-01-11T10:48:01;2.80;99.90
61392;DHT22;47261;52.892;5.738;2024-01-11T10:50:42;2.80;99.90
61392;DHT22;47261;52.892;5.738;2024-01-11T10:55:58;2.90;99.90
61392;DHT22;47261;52.892;5.738;2024-01-11T10:58:26;2.90;99.90
61392;DHT22;47261;52.892;5.738;2024-01-11T11:00:53;2.90;99.90
61392;DHT22;47261;52.892;5.738;2024-01-11T11:03:20;3.00;99.90
61392;DHT22;47261;52.892;5.738;2024-01-11T11:05:49;3.00;99.90
61392;DHT22;47261;52.892;5.738;2024-01-11T11:08:17;3.00;99.90
61392;DHT22;47261;52.892;5.738;2024-01-11T11:10:44;3.00;99.90
61392;DHT22;47261;52.892;5.738;2024-01-11T11:13:12;3.00;99.90
61392;DHT22;47261;52.892;5.738;2024-01-11T11:15:41;3.10;99.90
61392;DHT22;47261;52.892;5.738;2024-01-11T11:18:07;3.00;99.90
61392;DHT22;47261;52.892;5.738;2024-01-11T11:20:33;3.10;99.90
61392;DHT22;47261;52.892;5.738;2024-01-11T11:23:06;3.10;99.90
61392;DHT22;47261;52.892;5.738;2024-01-11T11:25:32;3.10;99.90
61392;DHT22;47261;52.892;5.738;2024-01-11T11:27:59;3.10;99.90
61392;DHT22;47261;52.892;5.738;2024-01-11T11:30:33;3.10;99.90
61392;DHT22;47261;52.892;5.738;2024-01-11T11:33:11;3.20;99.90
61392;DHT22;47261;52.892;5.738;2024-01-11T11:35:37;3.10;99.90
61392;DHT22;47261;52.892;5.738;2024-01-11T11:38:03;3.10;99.90
61392;DHT22;47261;52.892;5.738;2024-01-11T11:40:37;3.20;99.90
61392;DHT22;47261;52.892;5.738;2024-01-11T11:43:08;3.10;99.90
61392;DHT22;47261;52.892;5.738;2024-01-11T11:45:34;3.20;99.90
61392;DHT22;47261;52.892;5.738;2024-01-11T11:50:48;3.20;99.90
61392;DHT22;47261;52.892;5.738;2024-01-11T11:53:26;3.20;99.90
61392;DHT22;47261;52.892;5.738;2024-01-11T11:55:51;3.30;99.90
61392;DHT22;47261;52.892;5.738;2024-01-11T11:58:17;3.30;99.90
61392;DHT22;47261;52.892;5.738;2024-01-11T12:00:43;3.30;99.90
61392;DHT22;47261;52.892;5.738;2024-01-11T12:03:09;3.40;99.90
61392;DHT22;47261;52.892;5.738;2024-01-11T12:05:38;3.40;99.90
61392;DHT22;47261;52.892;5.738;2024-01-11T12:08:04;3.40;99.90
61392;DHT22;47261;52.892;5.738;2024-01-11T12:10:29;3.50;99.90
61392;DHT22;47261;52.892;5.738;2024-01-11T12:12:55;3.50;99.90
61392;DHT22;47261;52.892;5.738;2024-01-11T12:15:21;3.50;99.90
61392;DHT22;47261;52.892;5.738;2024-01-11T12:17:46;3.60;99.90
61392;DHT22;47261;52.892;5.738;2024-01-11T12:20:12;3.70;99.90
61392;DHT22;47261;52.892;5.738;2024-01-11T12:22:38;3.70;99.90
61392;DHT22;47261;52.892;5.738;2024-01-11T12:25:04;3.70;99.90
61392;DHT22;47261;52.892;5.738;2024-01-11T12:27:30;3.80;99.90
61392;DHT22;47261;52.892;5.738;2024-01-11T12:29:56;3.80;99.90
61392;DHT22;47261;52.892;5.738;2024-01-11T12:32:22;3.90;99.90
61392;DHT22;47261;52.892;5.738;2024-01-11T12:34:48;3.90;99.90
61392;DHT22;47261;52.892;5.738;2024-01-11T12:37:15;3.90;99.90
61392;DHT22;47261;52.892;5.738;2024-01-11T12:39:41;3.90;99.90
61392;DHT22;47261;52.892;5.738;2024-01-11T12:42:06;3.90;99.90
61392;DHT22;47261;52.892;5.738;2024-01-11T12:44:32;3.90;99.90
61392;DHT22;47261;52.892;5.738;2024-01-11T12:46:58;3.90;99.90
61392;DHT22;47261;52.892;5.738;2024-01-11T12:49:24;3.90;99.90
61392;DHT22;47261;52.892;5.738;2024-01-11T12:51:50;3.90;99.90
61392;DHT22;47261;52.892;5.738;2024-01-11T12:54:16;3.90;99.90
61392;DHT22;47261;52.892;5.738;2024-01-11T12:56:45;3.90;99.90
61392;DHT22;47261;52.892;5.738;2024-01-11T12:59:11;3.90;99.90
61392;DHT22;47261;52.892;5.738;2024-01-11T13:01:38;3.90;99.90
61392;DHT22;47261;52.892;5.738;2024-01-11T13:04:04;3.90;99.90
61392;DHT22;47261;52.892;5.738;2024-01-11T13:06:30;3.90;99.90
61392;DHT22;47261;52.892;5.738;2024-01-11T13:08:56;3.90;99.90
61392;DHT22;47261;52.892;5.738;2024-01-11T13:11:22;3.80;99.90
61392;DHT22;47261;52.892;5.738;2024-01-11T13:13:50;3.80;99.90
61392;DHT22;47261;52.892;5.738;2024-01-11T13:16:17;3.80;99.90
61392;DHT22;47261;52.892;5.738;2024-01-11T13:18:44;3.90;99.90
61392;DHT22;47261;52.892;5.738;2024-01-11T13:21:10;3.80;99.90
61392;DHT22;47261;52.892;5.738;2024-01-11T13:23:38;3.80;99.90
61392;DHT22;47261;52.892;5.738;2024-01-11T13:26:05;3.80;99.90
61392;DHT22;47261;52.892;5.738;2024-01-11T13:28:31;3.80;99.90
61392;DHT22;47261;52.892;5.738;2024-01-11T13:30:57;3.80;99.90
61392;DHT22;47261;52.892;5.738;2024-01-11T13:33:23;3.80;99.90
61392;DHT22;47261;52.892;5.738;2024-01-11T13:35:49;3.80;99.90
61392;DHT22;47261;52.892;5.738;2024-01-11T13:38:15;3.70;99.90
61392;DHT22;47261;52.892;5.738;2024-01-11T13:40:41;3.70;99.90
61392;DHT22;47261;52.892;5.738;2024-01-11T13:43:08;3.70;99.90
61392;DHT22;47261;52.892;5.738;2024-01-11T13:45:35;3.70;99.90
61392;DHT22;47261;52.892;5.738;2024-01-11T13:48:04;3.70;99.90
61392;DHT22;47261;52.892;5.738;2024-01-11T13:50:30;3.70;99.90
61392;DHT22;47261;52.892;5.738;2024-01-11T13:52:55;3.70;99.90
61392;DHT22;47261;52.892;5.738;2024-01-11T13:55:21;3.70;99.90
61392;DHT22;47261;52.892;5.738;2024-01-11T13:57:48;3.70;99.90
61392;DHT22;47261;52.892;5.738;2024-01-11T14:00:15;3.70;99.90
61392;DHT22;47261;52.892;5.738;2024-01-11T14:02:43;3.70;99.90
61392;DHT22;47261;52.892;5.738;2024-01-11T14:05:10;3.70;99.90
61392;DHT22;47261;52.892;5.738;2024-01-11T14:07:42;3.70;99.90
61392;DHT22;47261;52.892;5.738;2024-01-11T14:10:09;3.70;99.90
61392;DHT22;47261;52.892;5.738;2024-01-11T14:12:35;3.70;99.90
61392;DHT22;47261;52.892;5.738;2024-01-11T14:15:05;3.70;99.90
61392;DHT22;47261;52.892;5.738;2024-01-11T14:17:34;3.70;99.90
61392;DHT22;47261;52.892;5.738;2024-01-11T14:20:01;3.70;99.90
61392;DHT22;47261;52.892;5.738;2024-01-11T14:22:26;3.70;99.90
61392;DHT22;47261;52.892;5.738;2024-01-11T14:24:52;3.70;99.90
61392;DHT22;47261;52.892;5.738;2024-01-11T14:27:20;3.70;99.90
61392;DHT22;47261;52.892;5.738;2024-01-11T14:29:46;3.70;99.90
61392;DHT22;47261;52.892;5.738;2024-01-11T14:32:12;3.70;99.90
61392;DHT22;47261;52.892;5.738;2024-01-11T14:34:41;3.70;99.90
61392;DHT22;47261;52.892;5.738;2024-01-11T14:37:08;3.70;99.90
61392;DHT22;47261;52.892;5.738;2024-01-11T14:39:34;3.70;99.90
61392;DHT22;47261;52.892;5.738;2024-01-11T14:42:00;3.80;99.90
61392;DHT22;47261;52.892;5.738;2024-01-11T14:44:25;3.80;99.90
61392;DHT22;47261;52.892;5.738;2024-01-11T14:46:51;3.80;99.90
61392;DHT22;47261;52.892;5.738;2024-01-11T14:49:16;3.80;99.90
61392;DHT22;47261;52.892;5.738;2024-01-11T14:51:42;3.80;99.90
61392;DHT22;47261;52.892;5.738;2024-01-11T14:54:08;3.80;99.90
61392;DHT22;47261;52.892;5.738;2024-01-11T14:56:33;3.80;99.90
61392;DHT22;47261;52.892;5.738;2024-01-11T14:59:01;3.80;99.90
61392;DHT22;47261;52.892;5.738;2024-01-11T15:01:27;3.80;99.90
61392;DHT22;47261;52.892;5.738;2024-01-11T15:03:52;3.80;99.90
61392;DHT22;47261;52.892;5.738;2024-01-11T15:06:18;3.90;99.90
61392;DHT22;47261;52.892;5.738;2024-01-11T15:08:44;3.90;99.90
61392;DHT22;47261;52.892;5.738;2024-01-11T15:11:10;3.90;99.90
61392;DHT22;47261;52.892;5.738;2024-01-11T15:13:35;3.80;99.90
61392;DHT22;47261;52.892;5.738;2024-01-11T15:16:01;3.80;99.90
61392;DHT22;47261;52.892;5.738;2024-01-11T15:18:27;3.80;99.90
61392;DHT22;47261;52.892;5.738;2024-01-11T15:20:52;3.80;99.90
61392;DHT22;47261;52.892;5.738;2024-01-11T15:23:18;3.80;99.90
61392;DHT22;47261;52.892;5.738;2024-01-11T15:25:44;3.80;99.90
61392;DHT22;47261;52.892;5.738;2024-01-11T15:28:11;3.80;99.90
61392;DHT22;47261;52.892;5.738;2024-01-11T15:30:36;3.90;99.90
61392;DHT22;47261;52.892;5.738;2024-01-11T15:33:02;3.90;99.90
61392;DHT22;47261;52.892;5.738;2024-01-11T15:35:28;3.90;99.90
61392;DHT22;47261;52.892;5.738;2024-01-11T15:37:54;4.00;99.90